Douglaston, New York
Current Conditions -  °F | °C
As of 11:51 PM on Wednesday 26 Nov 2014 (Local Time) from KLGA Reporting Station
Overcast Overcast  
Wind Chill: 27°   Ceiling: 4800
Heat Index: 36°   Visibility: 10mi
Dew Point: 32°   Wind: 15mph
Humidity: 86%   Direction: 340°NNW
Pressure: 29.83"   Gusts: NA
Location:  40.7726°N, 73.7467°W
Report Text: KLGA 270451Z 34013KT 10SM FEW018 OVC048 02/00 A2983 RMK AO2 PK WND 33026/0411 RAE30SNE30 SLP101 P0000 T00220000 401060011
Loading
Personal Weather Stations






























Interactive Weather Map New forecast layout! Learn more

10-Day Weather Forecast

Advertisements
Track Severe Weather on mobile